Terminal Aerodrome Forecast
Issued by NWS Milwaukee/Sullivan, WI

Home | Current Version | Previous Version | Text Only | Print | Product List | Glossary On
Versions: 1 2 3 4 5 6 7 8 9 10 11 12 13 14 15 16 17 18 19 20 21 22 23 24 25 26 27 28 29 30 31 32 33 34 35 36 37 38 39 40 41 42
000
FTUS43 KMKX 220520
TAFMSN
TAF
KMSN 220520Z 2206/2306 18009KT P6SM FEW250
     FM221400 20013KT P6SM BKN250
     FM221800 22013G23KT P6SM SCT120 BKN250
     FM222200 23010G20KT P6SM VCTS SCT040 BKN100CB
     FM230000 30008KT P6SM SCT040 BKN250
     FM230200 01008KT P6SM SCT040 SCT250=

USA.gov is the U.S. government's official web portal to all federal, state and local government web resources and services.